Terminal Aerodrome Forecast
Issued by NWS

Home | Current Version | Previous Version | Text Only | Print | Product List | Glossary On
Versions: 1 2 3 4 5 6 7 8 9 10 11 12 13 14 15 16 17 18 19 20 21
000
FTAK31 PAJN 241100
TAFAGY
TAF
PAGY 241134Z 2412/2512 04003KT P6SM -RA SCT015 BKN025 OVC040
     FM241400 04003KT P6SM VCSH BKN025 BKN060
     FM241800 21006KT P6SM SCT030 BKN060
     FM242100 21007KT P6SM SCT030 SCT060
     FM250100 21008KT P6SM SCT060
     FM250600 00000KT P6SM SCT100
      AMD LTD TO CLD VIS AND WIND=

USA.gov is the U.S. government's official web portal to all federal, state and local government web resources and services.